Time;durP1;ratioP1;P1;durP2;ratioP2;P2;SDS_P1;SDS_P2;PMS_P1;PMS_P2;Temp;Humidity;BMP_temperature;BMP_pressure;BME280_temperature;BME280_humidity;BME280_pressure;Samples;Min_cycle;Max_cycle;Signal;HPM_P1;HPM_P2
2023/10/23 00:02:05;;;;;;;14.13;6.60;;;14.10;99.90;;;;;;5035854;28;20474;-75
2023/10/23 00:04:32;;;;;;;9.02;6.35;;;14.10;99.90;;;;;;5031355;28;20064;-74
2023/10/23 00:06:57;;;;;;;12.10;6.28;;;14.00;99.90;;;;;;5032281;28;20486;-75
2023/10/23 00:09:23;;;;;;;14.75;7.03;;;14.00;99.90;;;;;;5032651;28;20035;-74
2023/10/23 00:11:49;;;;;;;11.07;6.50;;;14.00;99.90;;;;;;5033586;28;20099;-75
2023/10/23 00:14:14;;;;;;;12.48;5.65;;;14.00;99.90;;;;;;5031600;28;20100;-74
2023/10/23 00:16:40;;;;;;;11.48;6.05;;;13.90;99.90;;;;;;5035341;28;20040;-74
2023/10/23 00:19:06;;;;;;;7.43;5.05;;;14.00;99.90;;;;;;5033500;28;20043;-74
2023/10/23 00:21:31;;;;;;;8.98;6.10;;;13.90;99.90;;;;;;5031014;28;20457;-74
2023/10/23 00:23:57;;;;;;;10.90;5.80;;;13.80;99.90;;;;;;5031153;28;20026;-74
2023/10/23 00:26:24;;;;;;;8.85;5.43;;;13.80;99.90;;;;;;5031304;28;20427;-74
2023/10/23 00:28:49;;;;;;;7.25;5.22;;;13.80;99.90;;;;;;5032730;28;20098;-74
2023/10/23 00:31:15;;;;;;;9.70;5.57;;;13.80;99.90;;;;;;5034654;28;20488;-75
2023/10/23 00:33:41;;;;;;;7.50;5.28;;;13.80;99.90;;;;;;5030931;28;20061;-74
2023/10/23 00:36:07;;;;;;;10.15;5.20;;;13.80;99.90;;;;;;5028670;28;20059;-74
2023/10/23 00:38:33;;;;;;;9.05;5.60;;;13.70;99.90;;;;;;5031031;28;20092;-74
2023/10/23 00:40:58;;;;;;;11.25;5.45;;;13.70;99.90;;;;;;5032603;28;20083;-74
2023/10/23 00:43:24;;;;;;;18.88;6.10;;;13.70;99.90;;;;;;5032565;28;20030;-74
2023/10/23 00:45:50;;;;;;;10.10;4.82;;;13.60;99.90;;;;;;5035141;28;20025;-74
2023/10/23 00:48:19;;;;;;;13.13;5.20;;;13.70;99.90;;;;;;5029837;28;20033;-74
2023/10/23 00:50:46;;;;;;;10.73;5.20;;;13.60;99.90;;;;;;5036228;28;20021;-74
2023/10/23 00:53:12;;;;;;;18.45;6.15;;;13.60;99.90;;;;;;5033646;28;20037;-74
2023/10/23 00:55:39;;;;;;;10.27;5.05;;;13.50;99.90;;;;;;5031987;28;20035;-74
2023/10/23 00:58:05;;;;;;;7.68;4.75;;;13.50;99.90;;;;;;5028398;28;20067;-74
2023/10/23 01:00:32;;;;;;;8.65;4.93;;;13.40;99.90;;;;;;5032367;28;20029;-74
2023/10/23 01:02:59;;;;;;;7.57;5.05;;;13.40;99.90;;;;;;5032029;28;20025;-74
2023/10/23 01:05:24;;;;;;;12.15;5.68;;;13.40;99.90;;;;;;5033479;28;20048;-73
2023/10/23 01:07:50;;;;;;;10.13;5.05;;;13.40;99.90;;;;;;5032772;28;20064;-73
2023/10/23 01:10:16;;;;;;;13.98;5.18;;;13.30;99.90;;;;;;5033192;28;20117;-73
2023/10/23 01:12:42;;;;;;;7.22;4.30;;;13.30;99.90;;;;;;5036647;28;20048;-74
2023/10/23 01:15:08;;;;;;;6.65;4.63;;;13.40;99.90;;;;;;5035290;28;20032;-73
2023/10/23 01:17:33;;;;;;;10.27;4.72;;;13.30;99.90;;;;;;5031938;28;20033;-74
2023/10/23 01:19:59;;;;;;;12.27;4.82;;;13.20;99.90;;;;;;5031416;28;20386;-73
2023/10/23 01:22:25;;;;;;;10.20;4.82;;;13.20;99.90;;;;;;5036488;28;20025;-73
2023/10/23 01:24:52;;;;;;;9.60;3.92;;;13.20;99.90;;;;;;5035950;28;20467;-73
2023/10/23 01:27:18;;;;;;;12.90;4.72;;;13.20;99.90;;;;;;5038084;28;20043;-73
2023/10/23 01:29:43;;;;;;;12.70;4.95;;;13.20;99.90;;;;;;5036066;28;20017;-73
2023/10/23 01:32:10;;;;;;;13.15;5.20;;;13.20;99.90;;;;;;5035124;28;20514;-73
2023/10/23 01:34:36;;;;;;;8.93;4.93;;;13.20;99.90;;;;;;5037460;28;20111;-73
2023/10/23 01:37:01;;;;;;;7.90;4.32;;;13.20;99.90;;;;;;5034002;28;20128;-73
2023/10/23 01:39:27;;;;;;;14.40;5.25;;;13.20;99.90;;;;;;5036263;28;20021;-73
2023/10/23 01:41:53;;;;;;;11.38;5.28;;;13.10;99.90;;;;;;5035423;28;20032;-73
2023/10/23 01:44:19;;;;;;;13.48;5.10;;;13.10;99.90;;;;;;5036560;28;20031;-73
2023/10/23 01:46:44;;;;;;;14.23;5.40;;;13.10;99.90;;;;;;5037801;28;20112;-73
2023/10/23 01:49:10;;;;;;;9.70;5.30;;;13.10;99.90;;;;;;5035919;28;20025;-73
2023/10/23 01:51:36;;;;;;;15.05;5.20;;;13.00;99.90;;;;;;5039520;28;20045;-73
2023/10/23 01:54:01;;;;;;;8.68;5.38;;;13.00;99.90;;;;;;5036053;28;20042;-73
2023/10/23 01:56:27;;;;;;;10.02;5.00;;;13.00;99.90;;;;;;5037792;28;20025;-73
2023/10/23 01:58:53;;;;;;;8.43;5.03;;;13.00;99.90;;;;;;5035009;28;20505;-73
2023/10/23 02:01:23;;;;;;;11.52;5.03;;;13.00;99.90;;;;;;5039769;28;20429;-73
2023/10/23 02:03:49;;;;;;;10.27;4.70;;;12.90;99.90;;;;;;5034629;28;20018;-73
2023/10/23 02:06:15;;;;;;;11.60;5.68;;;12.90;99.90;;;;;;5033840;28;20074;-73
2023/10/23 02:08:41;;;;;;;15.15;5.22;;;12.90;99.90;;;;;;5034146;28;20022;-73
2023/10/23 02:11:08;;;;;;;10.30;5.55;;;12.80;99.90;;;;;;5037241;28;20463;-73
2023/10/23 02:13:34;;;;;;;12.40;5.00;;;12.90;99.90;;;;;;5036738;28;20024;-74
2023/10/23 02:16:00;;;;;;;14.70;4.72;;;12.90;99.90;;;;;;5035464;28;20469;-73
2023/10/23 02:18:26;;;;;;;12.00;5.63;;;12.90;99.90;;;;;;5038831;28;20032;-73
2023/10/23 02:20:51;;;;;;;10.88;4.57;;;12.90;99.90;;;;;;5037491;28;20480;-73
2023/10/23 02:23:17;;;;;;;12.50;5.28;;;12.80;99.90;;;;;;5034749;28;20037;-73
2023/10/23 02:25:43;;;;;;;10.98;4.75;;;12.90;99.90;;;;;;5039815;28;20033;-73
2023/10/23 02:28:08;;;;;;;11.57;4.80;;;12.90;99.90;;;;;;5044384;28;20112;-73
2023/10/23 02:30:37;;;;;;;7.63;4.43;;;12.90;99.90;;;;;;5047198;28;20037;-72
2023/10/23 02:33:03;;;;;;;9.98;4.53;;;12.90;99.90;;;;;;5049857;28;20087;-73
2023/10/23 02:35:29;;;;;;;8.52;4.55;;;12.80;99.90;;;;;;5048855;28;20033;-73
2023/10/23 02:37:55;;;;;;;11.57;4.75;;;12.80;99.90;;;;;;5042447;28;20029;-73
2023/10/23 02:40:21;;;;;;;13.23;4.60;;;12.80;99.90;;;;;;5040982;28;20016;-73
2023/10/23 02:42:47;;;;;;;16.10;6.18;;;12.80;99.90;;;;;;5041209;28;20067;-73
2023/10/23 02:45:13;;;;;;;9.30;4.70;;;12.80;99.90;;;;;;5041933;28;20057;-73
2023/10/23 02:47:39;;;;;;;16.48;4.13;;;12.80;99.90;;;;;;5039330;28;20074;-72
2023/10/23 02:50:06;;;;;;;9.65;5.00;;;12.70;99.90;;;;;;5042371;28;20041;-73
2023/10/23 02:52:31;;;;;;;10.60;4.70;;;12.80;99.90;;;;;;5050117;28;20026;-73
2023/10/23 02:54:57;;;;;;;10.15;4.63;;;12.80;99.90;;;;;;5051117;28;20105;-73
2023/10/23 02:57:23;;;;;;;13.38;5.07;;;12.80;99.90;;;;;;5047895;28;20037;-73
2023/10/23 02:59:49;;;;;;;11.25;4.07;;;12.70;99.90;;;;;;5044382;28;20884;-73
2023/10/23 03:02:16;;;;;;;12.48;4.55;;;12.70;99.90;;;;;;5045513;28;20518;-73
2023/10/23 03:04:42;;;;;;;17.58;4.93;;;12.70;99.90;;;;;;5040592;28;20124;-73
2023/10/23 03:07:09;;;;;;;15.50;5.53;;;12.70;99.90;;;;;;5043566;28;20445;-73
2023/10/23 03:09:35;;;;;;;12.98;4.78;;;12.70;99.90;;;;;;5041155;28;20104;-73
2023/10/23 03:12:00;;;;;;;12.80;4.35;;;12.60;99.90;;;;;;5043814;28;20120;-73
2023/10/23 03:14:26;;;;;;;13.88;4.72;;;12.50;99.90;;;;;;5047696;28;20034;-73
2023/10/23 03:16:52;;;;;;;11.65;4.10;;;12.50;99.90;;;;;;5040386;28;20036;-73
2023/10/23 03:19:19;;;;;;;6.43;4.45;;;12.50;99.90;;;;;;5044372;28;20024;-73
2023/10/23 03:21:45;;;;;;;11.05;4.07;;;12.50;99.90;;;;;;5046691;28;20025;-73
2023/10/23 03:24:10;;;;;;;13.45;5.25;;;12.50;99.90;;;;;;5045963;28;20721;-73
2023/10/23 03:26:36;;;;;;;9.55;4.63;;;12.40;99.90;;;;;;5042795;28;20029;-73
2023/10/23 03:29:03;;;;;;;8.10;4.47;;;12.40;99.90;;;;;;5040375;28;20037;-73
2023/10/23 03:31:32;;;;;;;10.32;4.57;;;12.40;99.90;;;;;;5039850;28;20045;-73
2023/10/23 03:33:59;;;;;;;7.13;4.50;;;12.30;99.90;;;;;;5045826;28;20116;-73
2023/10/23 03:36:25;;;;;;;8.63;4.40;;;12.20;99.90;;;;;;5039574;28;20063;-73
2023/10/23 03:38:51;;;;;;;10.15;4.20;;;12.30;99.90;;;;;;5043382;28;20027;-73
2023/10/23 03:41:16;;;;;;;12.90;4.78;;;12.30;99.90;;;;;;5041018;28;20025;-73
2023/10/23 03:43:42;;;;;;;10.80;4.63;;;12.30;99.90;;;;;;5041822;28;20374;-73
2023/10/23 03:46:08;;;;;;;8.05;4.53;;;12.30;99.90;;;;;;5046158;28;20033;-73
2023/10/23 03:48:37;;;;;;;13.45;4.78;;;12.20;99.90;;;;;;5042532;28;20025;-73
2023/10/23 03:51:03;;;;;;;13.20;4.90;;;12.20;99.90;;;;;;5048022;28;20179;-73
2023/10/23 03:53:29;;;;;;;9.68;4.38;;;12.20;99.90;;;;;;5042523;28;20132;-73
2023/10/23 03:55:55;;;;;;;9.77;4.13;;;12.20;99.90;;;;;;5046231;28;20025;-73
2023/10/23 03:58:21;;;;;;;12.43;4.45;;;12.20;99.90;;;;;;5038017;28;20353;-73
2023/10/23 04:00:51;;;;;;;14.05;4.80;;;12.10;99.90;;;;;;5042004;28;20033;-73
2023/10/23 04:03:17;;;;;;;10.10;4.50;;;12.10;99.90;;;;;;5043182;28;20048;-73
2023/10/23 04:05:43;;;;;;;14.07;4.60;;;12.10;99.90;;;;;;5041043;28;20029;-73
2023/10/23 04:08:09;;;;;;;8.90;3.83;;;12.10;99.90;;;;;;5036591;28;20033;-73
2023/10/23 04:10:35;;;;;;;8.35;3.67;;;12.10;99.90;;;;;;5041828;28;20113;-73
2023/10/23 04:13:01;;;;;;;8.80;4.18;;;12.10;99.90;;;;;;5043190;28;20052;-73
2023/10/23 04:15:27;;;;;;;12.20;4.20;;;12.10;99.90;;;;;;5041413;28;20021;-73
2023/10/23 04:17:53;;;;;;;10.43;4.50;;;12.00;99.90;;;;;;5039937;28;20040;-73
2023/10/23 04:20:19;;;;;;;6.82;3.47;;;12.00;99.90;;;;;;5044194;28;20057;-73
2023/10/23 04:22:44;;;;;;;8.70;4.13;;;11.90;99.90;;;;;;5047640;28;20091;-73
2023/10/23 04:25:10;;;;;;;5.03;3.47;;;11.90;99.90;;;;;;5048550;28;20024;-73
2023/10/23 04:27:36;;;;;;;9.63;3.92;;;11.90;99.90;;;;;;5037884;28;20035;-73
2023/10/23 04:30:04;;;;;;;10.20;3.80;;;11.90;99.90;;;;;;5040959;28;20018;-73
2023/10/23 04:32:30;;;;;;;13.63;4.72;;;11.90;99.90;;;;;;5036186;28;20377;-73
2023/10/23 04:34:55;;;;;;;12.85;4.25;;;11.90;99.90;;;;;;5047537;28;20096;-73
2023/10/23 04:37:21;;;;;;;7.78;4.53;;;11.90;99.90;;;;;;5039945;28;20033;-73
2023/10/23 04:39:47;;;;;;;5.25;4.13;;;11.90;99.90;;;;;;5041839;28;20033;-73
2023/10/23 04:42:13;;;;;;;8.20;3.97;;;11.80;99.90;;;;;;5041861;28;20034;-73
2023/10/23 04:44:38;;;;;;;12.07;4.05;;;11.80;99.90;;;;;;5044395;28;20021;-73
2023/10/23 04:47:04;;;;;;;11.40;3.85;;;11.80;99.90;;;;;;5053387;28;20481;-73
2023/10/23 04:49:29;;;;;;;9.88;3.65;;;11.80;99.90;;;;;;5038718;28;20481;-73
2023/10/23 04:51:55;;;;;;;11.77;4.47;;;11.70;99.90;;;;;;5042882;28;20052;-73
2023/10/23 04:54:21;;;;;;;12.70;3.63;;;11.70;99.90;;;;;;5039907;28;20021;-73
2023/10/23 04:56:47;;;;;;;13.75;3.78;;;11.70;99.90;;;;;;5037652;28;20367;-73
2023/10/23 04:59:13;;;;;;;10.43;3.92;;;11.60;99.90;;;;;;5038632;28;20045;-73
2023/10/23 05:01:38;;;;;;;12.73;4.60;;;11.60;99.90;;;;;;5039797;28;20064;-73
2023/10/23 05:04:05;;;;;;;6.72;3.28;;;11.60;99.90;;;;;;5042259;28;20022;-73
2023/10/23 05:06:30;;;;;;;5.82;4.28;;;11.50;99.90;;;;;;5038935;28;20090;-73
2023/10/23 05:08:56;;;;;;;6.72;4.22;;;11.50;99.90;;;;;;5041667;28;20394;-73
2023/10/23 05:11:22;;;;;;;8.13;3.40;;;11.50;99.90;;;;;;5041714;28;20065;-72
2023/10/23 05:13:48;;;;;;;5.03;3.50;;;11.50;99.90;;;;;;5039428;28;20428;-76
2023/10/23 05:16:13;;;;;;;8.60;3.60;;;11.50;99.90;;;;;;5048516;28;20028;-73
2023/10/23 05:18:39;;;;;;;9.80;4.18;;;11.40;99.90;;;;;;5045032;28;20029;-73
2023/10/23 05:21:09;;;;;;;9.65;3.97;;;11.50;99.90;;;;;;5042727;28;20025;-75
2023/10/23 05:23:36;;;;;;;11.15;5.18;;;11.50;99.90;;;;;;5044506;28;20020;-75
2023/10/23 05:26:02;;;;;;;9.90;3.95;;;11.50;99.90;;;;;;5038929;28;20419;-75
2023/10/23 05:28:28;;;;;;;7.70;3.97;;;11.50;99.90;;;;;;5042297;28;20474;-72
2023/10/23 05:30:55;;;;;;;9.88;3.72;;;11.40;99.90;;;;;;5046836;28;20065;-72
2023/10/23 05:33:20;;;;;;;7.22;3.60;;;11.40;99.90;;;;;;5040773;28;20033;-75
2023/10/23 05:35:46;;;;;;;8.77;4.07;;;11.40;99.90;;;;;;5041826;28;20029;-74
2023/10/23 05:38:13;;;;;;;6.90;4.10;;;11.40;99.90;;;;;;5046368;28;20032;-75
2023/10/23 05:40:38;;;;;;;10.00;4.13;;;11.30;99.90;;;;;;5049171;28;20126;-74
2023/10/23 05:43:04;;;;;;;10.38;3.95;;;11.30;99.90;;;;;;5033456;28;20029;-74
2023/10/23 05:45:30;;;;;;;7.50;3.72;;;11.30;99.90;;;;;;5039455;28;20088;-74
2023/10/23 05:47:55;;;;;;;10.45;4.00;;;11.30;99.90;;;;;;5035771;28;20026;-74
2023/10/23 05:50:21;;;;;;;10.15;4.32;;;11.20;99.90;;;;;;5039829;28;20116;-74
2023/10/23 05:52:47;;;;;;;17.80;4.95;;;11.20;99.90;;;;;;5047014;28;20478;-74
2023/10/23 05:55:13;;;;;;;11.02;4.97;;;11.20;99.90;;;;;;5049119;28;20036;-74
2023/10/23 05:57:39;;;;;;;10.43;4.00;;;11.20;99.90;;;;;;5046577;28;20037;-73
2023/10/23 06:00:08;;;;;;;7.18;4.50;;;11.20;99.90;;;;;;5045868;28;20025;-74
2023/10/23 06:02:34;;;;;;;14.50;4.53;;;11.20;99.90;;;;;;5040646;28;20042;-74
2023/10/23 06:05:00;;;;;;;8.13;4.07;;;11.20;99.90;;;;;;5042101;28;20028;-74
2023/10/23 06:07:26;;;;;;;7.15;4.43;;;11.20;99.90;;;;;;5050490;28;20025;-74
2023/10/23 06:09:51;;;;;;;6.97;4.35;;;11.10;99.90;;;;;;5039097;28;20394;-74
2023/10/23 06:12:17;;;;;;;9.52;4.28;;;11.10;99.90;;;;;;5044619;28;20041;-74
2023/10/23 06:14:43;;;;;;;14.00;4.18;;;10.90;99.90;;;;;;5041725;28;20025;-74
2023/10/23 06:17:09;;;;;;;11.38;5.10;;;10.80;99.90;;;;;;5051087;28;20466;-74
2023/10/23 06:19:36;;;;;;;12.25;4.60;;;10.90;99.90;;;;;;5050306;28;20068;-74
2023/10/23 06:22:02;;;;;;;15.52;4.80;;;10.80;99.90;;;;;;5034193;28;20108;-74
2023/10/23 06:24:28;;;;;;;11.43;5.10;;;10.80;99.90;;;;;;5033097;28;20175;-73
2023/10/23 06:26:54;;;;;;;6.03;4.28;;;10.80;99.90;;;;;;5034030;28;20026;-74
2023/10/23 06:29:19;;;;;;;10.70;5.53;;;10.80;99.90;;;;;;5033813;28;20030;-74
2023/10/23 06:31:45;;;;;;;12.88;5.25;;;10.70;99.90;;;;;;5037168;28;20047;-73
2023/10/23 06:34:11;;;;;;;10.57;4.50;;;10.70;99.90;;;;;;5033725;28;20097;-73
2023/10/23 06:36:40;;;;;;;15.02;3.90;;;10.80;99.90;;;;;;5039743;28;20037;-73
2023/10/23 06:39:06;;;;;;;11.23;4.47;;;10.70;99.90;;;;;;5046952;28;20024;-73
2023/10/23 06:41:32;;;;;;;12.48;4.45;;;10.70;99.90;;;;;;5044596;28;20029;-73
2023/10/23 06:43:57;;;;;;;13.13;5.18;;;10.70;99.90;;;;;;5043186;28;20067;-73
2023/10/23 06:46:23;;;;;;;10.13;4.95;;;10.60;99.90;;;;;;5042398;28;20474;-73
2023/10/23 06:48:49;;;;;;;10.45;5.40;;;10.70;99.90;;;;;;5043583;28;20545;-73
2023/10/23 06:51:15;;;;;;;12.43;5.70;;;10.70;99.90;;;;;;5041914;28;20071;-73
2023/10/23 06:53:40;;;;;;;9.40;7.45;;;10.70;99.90;;;;;;5050303;28;20017;-73
2023/10/23 06:56:08;;;;;;;11.55;5.93;;;10.70;99.90;;;;;;5053328;28;20064;-73
2023/10/23 06:58:34;;;;;;;17.15;5.72;;;10.70;99.90;;;;;;5052102;28;20055;-73
2023/10/23 07:01:09;;;;;;;11.60;6.20;;;10.60;99.90;;;;;;5054289;28;20061;-73
2023/10/23 07:03:36;;;;;;;13.55;6.47;;;10.70;99.90;;;;;;5052158;28;20040;-73
2023/10/23 07:06:08;;;;;;;11.13;6.50;;;10.60;99.90;;;;;;5053762;28;20021;-74
2023/10/23 07:08:34;;;;;;;12.87;7.00;;;10.50;99.90;;;;;;5053984;28;20041;-74
2023/10/23 07:11:00;;;;;;;16.13;6.60;;;10.50;99.90;;;;;;5051453;28;20025;-74
2023/10/23 07:13:26;;;;;;;13.55;7.28;;;10.50;99.90;;;;;;5052416;28;20543;-74
2023/10/23 07:15:51;;;;;;;16.13;7.82;;;10.50;99.90;;;;;;5048508;28;20009;-74
2023/10/23 07:18:21;;;;;;;13.80;7.38;;;10.60;99.90;;;;;;5052581;28;20029;-73
2023/10/23 07:20:59;;;;;;;22.60;8.95;;;10.60;99.90;;;;;;5045961;28;20096;-74
2023/10/23 07:23:26;;;;;;;15.93;9.52;;;10.60;99.90;;;;;;5041427;28;20111;-74
2023/10/23 07:26:12;;;;;;;19.35;9.30;;;10.60;99.90;;;;;;5046886;28;20074;-73
2023/10/23 07:28:39;;;;;;;15.88;9.10;;;10.60;99.90;;;;;;5046919;28;20036;-73
2023/10/23 07:31:08;;;;;;;18.23;9.93;;;10.70;99.90;;;;;;5047230;28;20033;-73
2023/10/23 07:33:34;;;;;;;20.58;10.32;;;10.60;99.90;;;;;;5048968;28;20037;-74
2023/10/23 07:36:04;;;;;;;18.90;9.88;;;10.70;99.90;;;;;;5050371;28;20075;-74
2023/10/23 07:38:31;;;;;;;20.13;10.73;;;10.70;99.90;;;;;;5042023;28;20510;-74
2023/10/23 07:40:57;;;;;;;18.02;9.15;;;10.80;99.90;;;;;;5042853;28;20112;-74
2023/10/23 07:43:27;;;;;;;19.38;9.90;;;10.80;99.90;;;;;;5044377;28;20100;-74
2023/10/23 07:45:54;;;;;;;23.40;10.13;;;10.90;99.90;;;;;;5047610;28;20025;-74
2023/10/23 07:48:22;;;;;;;22.05;10.07;;;10.90;99.90;;;;;;5046070;28;20026;-74
2023/10/23 07:50:48;;;;;;;21.95;10.10;;;10.90;99.90;;;;;;5042548;28;20034;-74
2023/10/23 07:53:13;;;;;;;19.40;10.32;;;11.00;99.90;;;;;;5043908;28;20036;-74
2023/10/23 07:55:39;;;;;;;18.80;9.50;;;11.00;99.90;;;;;;5042606;28;20504;-74
2023/10/23 07:58:05;;;;;;;28.55;11.57;;;11.00;99.90;;;;;;5047416;28;20028;-74
2023/10/23 08:00:31;;;;;;;20.35;10.50;;;11.10;99.90;;;;;;5043871;28;20029;-74
2023/10/23 08:02:56;;;;;;;25.65;10.73;;;11.10;99.90;;;;;;5041473;28;20713;-73
2023/10/23 08:05:22;;;;;;;19.27;9.32;;;11.10;99.90;;;;;;5043311;28;20029;-73
2023/10/23 08:07:48;;;;;;;19.85;9.95;;;11.10;99.90;;;;;;5031917;28;20041;-73
2023/10/23 08:10:14;;;;;;;25.48;11.50;;;11.30;99.90;;;;;;5047414;28;20029;-73
2023/10/23 08:12:40;;;;;;;17.33;10.68;;;11.30;99.90;;;;;;5051148;28;20132;-73
2023/10/23 08:15:07;;;;;;;22.00;11.10;;;11.40;99.90;;;;;;5050153;28;20024;-72
2023/10/23 08:17:33;;;;;;;22.77;10.02;;;11.50;99.90;;;;;;5045944;28;20030;-73
2023/10/23 08:19:59;;;;;;;22.05;11.45;;;11.50;99.90;;;;;;5047466;28;20029;-74
2023/10/23 08:22:25;;;;;;;20.95;10.80;;;11.50;99.90;;;;;;5046107;28;20032;-74
2023/10/23 08:24:51;;;;;;;18.33;9.82;;;11.70;99.90;;;;;;5051944;28;20017;-74
2023/10/23 08:27:16;;;;;;;20.20;9.38;;;11.70;99.90;;;;;;5052492;28;20029;-74
2023/10/23 08:29:42;;;;;;;16.48;9.65;;;11.80;99.90;;;;;;5037520;28;20056;-75
2023/10/23 08:32:08;;;;;;;19.38;10.27;;;11.80;99.90;;;;;;5029866;28;20049;-75
2023/10/23 08:34:33;;;;;;;24.90;11.23;;;11.90;99.90;;;;;;5031077;28;20087;-74
2023/10/23 08:36:59;;;;;;;21.65;11.57;;;11.90;99.90;;;;;;5038243;28;20024;-75
2023/10/23 08:39:25;;;;;;;22.67;9.88;;;11.90;99.90;;;;;;5046782;28;20471;-75
2023/10/23 08:41:51;;;;;;;28.45;10.85;;;12.00;99.90;;;;;;5041689;28;20107;-75
2023/10/23 08:44:17;;;;;;;16.83;10.30;;;12.10;99.90;;;;;;5041088;28;20022;-75
2023/10/23 08:46:43;;;;;;;26.85;10.57;;;12.10;99.90;;;;;;5041295;28;20025;-75
2023/10/23 08:49:10;;;;;;;19.92;10.27;;;12.20;99.90;;;;;;5043948;28;20086;-75
2023/10/23 08:51:40;;;;;;;22.25;11.10;;;12.20;99.90;;;;;;5040185;28;20121;-75
2023/10/23 08:54:12;;;;;;;24.65;10.85;;;12.20;99.90;;;;;;5041764;28;20049;-74
2023/10/23 08:56:42;;;;;;;20.70;10.70;;;12.20;99.90;;;;;;5041750;28;20082;-72
2023/10/23 08:59:10;;;;;;;24.38;11.43;;;12.30;99.90;;;;;;5041135;28;20037;-72
2023/10/23 09:01:36;;;;;;;24.73;12.07;;;12.30;99.90;;;;;;5031909;28;20056;-72
2023/10/23 09:04:02;;;;;;;20.77;12.30;;;12.40;99.90;;;;;;5031080;28;20528;-74
2023/10/23 09:06:28;;;;;;;26.98;11.73;;;12.50;99.90;;;;;;5050661;28;20049;-73
2023/10/23 09:08:55;;;;;;;22.65;10.13;;;12.60;99.90;;;;;;5048025;28;20033;-74
2023/10/23 09:11:23;;;;;;;21.38;12.25;;;12.70;99.90;;;;;;5028071;28;20134;-74
2023/10/23 09:13:49;;;;;;;31.13;13.40;;;12.70;99.90;;;;;;5029742;28;20025;-74
2023/10/23 09:16:16;;;;;;;27.25;12.82;;;12.80;99.90;;;;;;5031503;28;20018;-75
2023/10/23 09:18:51;;;;;;;27.67;12.88;;;12.80;99.90;;;;;;5031427;28;20031;-74
2023/10/23 09:21:17;;;;;;;32.08;15.05;;;12.90;99.90;;;;;;5029208;28;20037;-75
2023/10/23 09:24:03;;;;;;;27.58;15.15;;;12.80;99.90;;;;;;5034192;28;20021;-74
2023/10/23 09:26:30;;;;;;;28.92;16.05;;;12.90;99.90;;;;;;5052001;28;20060;-74
2023/10/23 09:28:55;;;;;;;34.47;16.77;;;12.90;99.90;;;;;;5051714;28;20023;-74
2023/10/23 09:31:21;;;;;;;28.75;16.88;;;13.00;99.90;;;;;;5051107;28;20033;-74
2023/10/23 09:33:50;;;;;;;33.72;14.95;;;13.00;99.90;;;;;;5049578;28;20033;-75
2023/10/23 09:36:16;;;;;;;26.45;15.25;;;13.10;99.90;;;;;;5051618;28;20415;-74
2023/10/23 09:38:43;;;;;;;32.17;13.05;;;13.20;99.90;;;;;;5051475;28;20057;-76
2023/10/23 09:41:09;;;;;;;22.45;13.68;;;13.30;99.90;;;;;;5034503;28;20037;-75
2023/10/23 09:43:45;;;;;;;27.05;13.25;;;13.30;99.90;;;;;;5031630;28;20017;-75
2023/10/23 09:46:12;;;;;;;26.17;13.48;;;13.30;99.90;;;;;;5033866;28;20022;-74
2023/10/23 09:48:40;;;;;;;31.85;12.90;;;13.30;99.90;;;;;;5040731;28;20370;-75
2023/10/23 09:51:11;;;;;;;23.20;10.93;;;13.40;99.90;;;;;;5054086;28;20477;-74
2023/10/23 09:53:37;;;;;;;29.80;13.15;;;13.50;99.90;;;;;;5055413;28;20036;-74
2023/10/23 09:56:05;;;;;;;28.83;13.65;;;13.50;99.90;;;;;;5055385;28;20095;-74
2023/10/23 09:58:35;;;;;;;30.20;12.57;;;13.60;99.90;;;;;;5055511;28;20029;-75
2023/10/23 10:01:04;;;;;;;22.52;11.40;;;13.70;99.90;;;;;;5055955;28;20029;-74
2023/10/23 10:03:34;;;;;;;30.27;12.88;;;13.70;99.90;;;;;;5054609;28;20037;-74
2023/10/23 10:06:09;;;;;;;22.02;11.77;;;13.70;99.90;;;;;;5055221;28;20476;-74
2023/10/23 10:08:40;;;;;;;25.75;10.07;;;13.90;99.90;;;;;;5055383;28;20449;-74
2023/10/23 10:11:07;;;;;;;22.55;8.25;;;13.90;99.90;;;;;;5053973;28;20032;-74
2023/10/23 10:13:35;;;;;;;25.52;9.27;;;13.90;99.90;;;;;;5053115;28;20053;-74
2023/10/23 10:16:04;;;;;;;21.77;9.00;;;13.90;99.90;;;;;;5053558;28;20070;-75
2023/10/23 10:18:30;;;;;;;19.75;8.55;;;13.90;99.90;;;;;;5053768;28;20025;-75
2023/10/23 10:21:00;;;;;;;21.65;8.77;;;14.00;99.90;;;;;;5053859;28;20100;-75
2023/10/23 10:23:28;;;;;;;19.65;8.35;;;14.10;99.90;;;;;;5055201;28;20029;-74
2023/10/23 10:25:54;;;;;;;23.13;8.18;;;14.10;99.90;;;;;;5053356;28;20025;-77
2023/10/23 10:28:26;;;;;;;18.73;7.05;;;14.20;99.90;;;;;;5055014;28;20021;-76
2023/10/23 10:30:52;;;;;;;23.35;9.18;;;14.20;99.90;;;;;;5053526;28;20029;-74
2023/10/23 10:33:29;;;;;;;18.33;8.68;;;14.20;99.90;;;;;;5054718;28;20396;-73
2023/10/23 10:36:00;;;;;;;25.35;8.68;;;14.30;99.90;;;;;;5054518;28;20021;-75
2023/10/23 10:38:27;;;;;;;21.10;8.48;;;14.30;99.90;;;;;;5053928;28;20035;-75
2023/10/23 10:40:54;;;;;;;21.23;7.90;;;14.30;99.90;;;;;;5054498;28;20491;-75
2023/10/23 10:43:22;;;;;;;18.52;7.93;;;14.40;99.90;;;;;;5046509;28;20105;-74
2023/10/23 10:45:48;;;;;;;22.13;8.82;;;14.40;99.90;;;;;;5054703;28;20059;-73
2023/10/23 10:48:15;;;;;;;24.75;8.18;;;14.40;99.90;;;;;;5053605;28;20608;-74
2023/10/23 10:50:41;;;;;;;30.92;9.18;;;14.40;99.90;;;;;;5054925;28;20029;-74
2023/10/23 10:53:12;;;;;;;17.83;8.23;;;14.50;99.90;;;;;;5054199;28;20063;-76
2023/10/23 10:55:38;;;;;;;17.52;8.15;;;14.40;99.90;;;;;;5050147;28;20028;-75
2023/10/23 10:58:05;;;;;;;21.70;7.95;;;14.40;99.90;;;;;;5044539;28;20026;-74
2023/10/23 11:00:38;;;;;;;18.00;8.43;;;14.50;99.90;;;;;;5053859;28;20029;-75
2023/10/23 11:03:05;;;;;;;24.92;8.82;;;14.50;99.90;;;;;;5052305;28;20108;-75
2023/10/23 11:05:32;;;;;;;22.27;7.95;;;14.60;99.90;;;;;;5052789;28;20525;-76
2023/10/23 11:07:58;;;;;;;18.58;7.15;;;14.60;99.90;;;;;;5053293;28;20104;-76
2023/10/23 11:10:24;;;;;;;20.25;7.35;;;14.70;99.90;;;;;;5054253;28;20074;-74
2023/10/23 11:12:50;;;;;;;19.33;7.45;;;14.70;99.90;;;;;;5052490;28;20028;-74
2023/10/23 11:15:17;;;;;;;15.52;6.53;;;14.70;99.90;;;;;;5053574;28;20025;-74
2023/10/23 11:17:43;;;;;;;14.90;6.88;;;14.70;99.90;;;;;;5053967;28;20029;-74
2023/10/23 11:20:10;;;;;;;22.08;7.85;;;14.80;99.90;;;;;;5052641;28;20025;-75
2023/10/23 11:22:47;;;;;;;19.02;8.20;;;14.80;99.90;;;;;;5050273;28;20018;-73
2023/10/23 11:25:14;;;;;;;22.23;8.48;;;14.80;99.90;;;;;;5053893;28;20029;-74
2023/10/23 11:27:40;;;;;;;20.63;8.60;;;14.90;99.90;;;;;;5052753;28;20025;-73
2023/10/23 11:30:07;;;;;;;26.42;9.90;;;14.80;99.90;;;;;;5053621;28;20496;-75
2023/10/23 11:32:33;;;;;;;22.95;9.30;;;14.90;99.90;;;;;;5051746;28;20036;-73
2023/10/23 11:35:03;;;;;;;17.88;8.32;;;14.90;99.90;;;;;;5052440;28;20470;-74
2023/10/23 11:37:33;;;;;;;25.35;8.38;;;14.90;99.90;;;;;;5053269;28;20028;-73
2023/10/23 11:40:05;;;;;;;19.95;8.00;;;14.90;99.90;;;;;;5052882;28;20033;-74
2023/10/23 11:42:40;;;;;;;15.68;9.15;;;15.00;99.90;;;;;;5038157;28;20447;-74
2023/10/23 11:45:09;;;;;;;19.88;8.25;;;15.00;99.90;;;;;;5019344;28;20040;-74
2023/10/23 11:47:37;;;;;;;20.02;8.48;;;15.00;99.90;;;;;;5033373;28;20124;-75
2023/10/23 11:50:06;;;;;;;15.40;8.27;;;15.10;99.90;;;;;;5032782;28;20044;-73
2023/10/23 11:52:33;;;;;;;15.98;8.73;;;15.10;99.90;;;;;;5030836;28;20074;-74
2023/10/23 11:55:00;;;;;;;21.95;9.40;;;15.00;99.90;;;;;;5033756;28;20017;-73
2023/10/23 11:57:25;;;;;;;28.08;9.05;;;15.00;99.90;;;;;;5032426;28;20028;-74
2023/10/23 11:59:51;;;;;;;20.98;8.23;;;15.10;99.90;;;;;;5030520;28;20021;-74
2023/10/23 12:02:17;;;;;;;12.55;5.47;;;15.10;99.90;;;;;;5030561;28;20087;-74
2023/10/23 12:04:42;;;;;;;10.80;4.80;;;15.10;99.90;;;;;;5032567;28;20030;-76
2023/10/23 12:07:08;;;;;;;12.35;4.65;;;15.10;99.90;;;;;;5032955;28;20758;-74
2023/10/23 12:09:34;;;;;;;12.63;5.15;;;15.00;99.90;;;;;;5032579;28;20032;-74
2023/10/23 12:11:59;;;;;;;14.38;5.45;;;15.10;99.90;;;;;;5032224;28;20584;-76
2023/10/23 12:14:25;;;;;;;9.60;5.07;;;15.10;99.90;;;;;;5034992;28;20652;-75
2023/10/23 12:16:51;;;;;;;12.95;5.75;;;15.10;99.90;;;;;;5034853;28;20033;-77
2023/10/23 12:19:17;;;;;;;16.98;5.68;;;15.20;99.90;;;;;;5032213;28;20044;-76
2023/10/23 12:21:42;;;;;;;14.48;5.40;;;15.20;99.90;;;;;;5034423;28;20118;-75
2023/10/23 12:24:08;;;;;;;11.73;4.82;;;15.20;99.90;;;;;;5030716;28;20026;-74
2023/10/23 12:26:34;;;;;;;12.40;4.53;;;15.10;99.90;;;;;;5032179;28;20033;-74
2023/10/23 12:29:00;;;;;;;13.85;4.13;;;15.10;99.90;;;;;;5031141;28;20010;-75
2023/10/23 12:31:26;;;;;;;11.18;4.05;;;15.10;99.90;;;;;;5030446;28;20099;-78
2023/10/23 12:33:52;;;;;;;7.22;3.42;;;15.00;99.90;;;;;;5032352;28;20904;-75
2023/10/23 12:36:19;;;;;;;11.23;3.55;;;15.00;99.90;;;;;;5030771;28;20129;-75